Time;durP1;ratioP1;P1;durP2;ratioP2;P2;SDS_P1;SDS_P2;PMS_P1;PMS_P2;Temp;Humidity;BMP_temperature;BMP_pressure;BME280_temperature;BME280_humidity;BME280_pressure;Samples;Min_cycle;Max_cycle;Signal;HPM_P1;HPM_P2
2021/10/04 00:00:31;;;;;;;;;0.00;0.00;;;;;14.80;66.82;101107.38;4972224;28;61015;-79
2021/10/04 00:02:56;;;;;;;;;0.00;0.00;;;;;14.78;67.11;101111.84;4975018;28;45322;-78
2021/10/04 00:05:22;;;;;;;;;0.00;0.00;;;;;14.79;66.85;101124.22;4975113;28;50735;-78
2021/10/04 00:07:47;;;;;;;;;2.00;0.67;;;;;14.78;66.98;101123.34;4974571;28;61316;-78
2021/10/04 00:10:15;;;;;;;;;0.00;0.00;;;;;14.76;65.92;101129.56;4975305;28;45889;-78
2021/10/04 00:12:41;;;;;;;;;0.00;0.00;;;;;14.75;67.01;101122.47;4974981;28;45271;-78
2021/10/04 00:15:08;;;;;;;;;0.00;0.00;;;;;14.73;67.14;101118.94;4975798;28;45429;-78
2021/10/04 00:17:34;;;;;;;;;0.67;0.67;;;;;14.70;67.13;101113.59;4974209;28;47016;-79
2021/10/04 00:20:00;;;;;;;;;0.00;0.00;;;;;14.70;67.40;101119.84;4975036;28;45278;-79
2021/10/04 00:22:25;;;;;;;;;1.00;0.00;;;;;14.70;66.92;101118.91;4975449;28;45328;-78
2021/10/04 00:24:50;;;;;;;;;1.00;0.00;;;;;14.67;67.54;101118.03;4974931;28;49793;-79
2021/10/04 00:27:16;;;;;;;;;0.00;0.00;;;;;14.67;67.85;101117.16;4970920;28;59847;-79
2021/10/04 00:29:41;;;;;;;;;2.00;0.00;;;;;14.64;67.92;101099.44;4971489;28;45485;-78
2021/10/04 00:32:07;;;;;;;;;2.33;0.00;;;;;14.63;67.49;101105.63;4973952;28;45367;-78
2021/10/04 00:34:32;;;;;;;;;0.00;0.00;;;;;14.62;67.55;101108.31;4970063;28;45396;-78
2021/10/04 00:36:57;;;;;;;;;0.00;0.00;;;;;14.61;67.43;101107.44;4974174;28;61479;-78
2021/10/04 00:39:23;;;;;;;;;0.00;0.00;;;;;14.62;67.36;101111.84;4975027;28;45486;-79
2021/10/04 00:41:48;;;;;;;;;0.00;0.00;;;;;14.63;67.71;101116.28;4975283;28;45359;-78
2021/10/04 00:44:14;;;;;;;;;1.00;1.00;;;;;14.63;67.51;101116.28;4975157;28;45281;-78
2021/10/04 00:46:39;;;;;;;;;0.67;0.00;;;;;14.58;67.38;101110.06;4974792;28;47002;-78
2021/10/04 00:49:04;;;;;;;;;0.00;0.00;;;;;14.62;67.20;101119.81;4967916;28;58926;-78
2021/10/04 00:51:30;;;;;;;;;0.00;0.00;;;;;14.61;66.97;101120.72;4975024;28;45442;-78
2021/10/04 00:53:55;;;;;;;;;0.00;0.00;;;;;14.63;67.03;101118.94;4974674;28;54462;-78
2021/10/04 00:56:21;;;;;;;;;0.67;0.00;;;;;14.64;67.35;101117.16;4974635;28;46360;-79
2021/10/04 00:58:47;;;;;;;;;1.00;0.00;;;;;14.65;66.81;101118.94;4975068;28;45324;-78
2021/10/04 01:01:12;;;;;;;;;0.00;0.00;;;;;14.63;66.89;101113.63;4973088;28;45640;-78
2021/10/04 01:03:38;;;;;;;;;3.00;0.00;;;;;14.62;66.81;101116.28;4974583;28;45357;-78
2021/10/04 01:06:03;;;;;;;;;0.00;0.00;;;;;14.62;66.96;101114.50;4974559;28;47036;-78
2021/10/04 01:08:28;;;;;;;;;0.00;0.00;;;;;14.61;67.12;101120.72;4974387;28;45307;-78
2021/10/04 01:10:54;;;;;;;;;1.00;0.00;;;;;14.59;67.42;101113.63;4974899;28;45549;-78
2021/10/04 01:13:21;;;;;;;;;1.00;0.00;;;;;14.61;67.56;101119.84;4974871;28;45522;-78
2021/10/04 01:15:46;;;;;;;;;0.00;0.00;;;;;14.61;66.90;101120.72;4973239;28;47536;-79
2021/10/04 01:18:12;;;;;;;;;1.33;0.33;;;;;14.60;66.73;101116.28;4974436;28;45284;-78
2021/10/04 01:20:37;;;;;;;;;0.33;0.00;;;;;14.60;67.01;101112.75;4974466;28;45264;-78
2021/10/04 01:23:02;;;;;;;;;0.00;0.00;;;;;14.55;66.26;101112.75;4974657;28;50198;-78
2021/10/04 01:25:28;;;;;;;;;1.33;0.00;;;;;14.59;66.97;101119.81;4974292;28;47092;-78
2021/10/04 01:27:53;;;;;;;;;0.00;0.00;;;;;14.58;66.92;101110.06;4973714;28;45520;-79
2021/10/04 01:30:21;;;;;;;;;2.00;0.67;;;;;14.56;66.85;101109.19;4974532;28;45520;-78
2021/10/04 01:32:46;;;;;;;;;5.33;0.00;;;;;14.54;67.13;101107.41;4972835;28;45432;-78
2021/10/04 01:35:12;;;;;;;;;0.00;0.00;;;;;14.56;66.86;101111.84;4970928;28;46687;-78
2021/10/04 01:37:37;;;;;;;;;0.00;0.00;;;;;14.54;66.89;101105.66;4974358;28;45719;-78
2021/10/04 01:40:04;;;;;;;;;2.67;0.00;;;;;14.46;67.36;101090.56;4974242;28;45433;-79
2021/10/04 01:42:29;;;;;;;;;0.00;0.00;;;;;14.48;67.40;101088.81;4975017;28;45541;-78
2021/10/04 01:44:55;;;;;;;;;0.67;0.67;;;;;14.48;67.28;101099.44;4973300;28;60295;-78
2021/10/04 01:47:20;;;;;;;;;0.00;0.00;;;;;14.44;67.48;101095.91;4973305;28;59570;-78
2021/10/04 01:49:45;;;;;;;;;0.00;0.00;;;;;14.45;67.18;101100.31;4970491;28;45670;-78
2021/10/04 01:52:11;;;;;;;;;0.00;0.00;;;;;14.41;67.48;101094.13;4973598;28;45504;-78
2021/10/04 01:54:38;;;;;;;;;1.67;0.00;;;;;14.41;67.38;101086.16;4972684;28;48287;-78
2021/10/04 01:57:04;;;;;;;;;1.00;0.00;;;;;14.42;67.75;101106.50;4973877;28;45341;-79
2021/10/04 01:59:29;;;;;;;;;0.00;0.00;;;;;14.39;67.82;101106.53;4971584;28;45274;-79
2021/10/04 02:01:55;;;;;;;;;0.00;0.00;;;;;14.41;67.70;101101.19;4973835;28;45324;-78
2021/10/04 02:04:20;;;;;;;;;2.00;0.00;;;;;14.40;67.45;101102.09;4973144;28;50546;-78
2021/10/04 02:06:49;;;;;;;;;0.67;0.00;;;;;14.37;67.63;101100.31;4973996;28;49127;-78
2021/10/04 02:09:16;;;;;;;;;0.67;0.00;;;;;14.33;67.55;101087.94;4974036;28;45296;-78
2021/10/04 02:11:41;;;;;;;;;0.33;0.00;;;;;14.31;67.42;101087.03;4974236;28;45520;-78
2021/10/04 02:14:07;;;;;;;;;1.00;0.00;;;;;14.36;68.06;101100.31;4973901;28;47644;-78
2021/10/04 02:16:32;;;;;;;;;1.00;0.00;;;;;14.35;67.63;101103.88;4973405;28;48697;-78
2021/10/04 02:18:58;;;;;;;;;1.00;0.00;;;;;14.34;67.73;101104.75;4973126;28;51573;-78
2021/10/04 02:21:23;;;;;;;;;1.00;0.00;;;;;14.33;67.74;101103.00;4973252;28;50944;-78
2021/10/04 02:23:48;;;;;;;;;1.00;0.00;;;;;14.32;68.04;101107.38;4973679;28;46760;-78
2021/10/04 02:26:14;;;;;;;;;2.00;0.00;;;;;14.33;67.95;101121.59;4966705;28;58687;-78
2021/10/04 02:28:39;;;;;;;;;0.00;0.00;;;;;14.29;67.70;101109.19;4971746;28;53475;-78
2021/10/04 02:31:04;;;;;;;;;1.67;0.00;;;;;14.31;68.26;101118.91;4974175;28;45337;-78
2021/10/04 02:33:30;;;;;;;;;2.00;0.00;;;;;14.31;68.18;101120.69;4973090;28;46269;-78
2021/10/04 02:35:55;;;;;;;;;0.67;0.00;;;;;14.30;68.16;101118.91;4973908;28;45276;-78
2021/10/04 02:38:21;;;;;;;;;2.00;0.00;;;;;14.29;68.10;101120.69;4974027;28;45199;-78
2021/10/04 02:40:49;;;;;;;;;0.00;0.00;;;;;14.29;67.38;101111.84;4972993;28;50820;-78
2021/10/04 02:43:18;;;;;;;;;1.00;0.00;;;;;14.22;67.90;101102.06;4973623;28;47558;-78
2021/10/04 02:45:44;;;;;;;;;0.00;0.00;;;;;14.25;67.74;101110.94;4973566;28;45403;-78
2021/10/04 02:48:09;;;;;;;;;0.00;0.00;;;;;14.26;67.83;101109.16;4970653;28;45464;-78
2021/10/04 02:50:35;;;;;;;;;2.67;1.00;;;;;14.25;68.04;101110.06;4972253;28;45586;-78
2021/10/04 02:53:00;;;;;;;;;2.00;0.00;;;;;14.24;68.33;101106.53;4971416;28;62142;-77
2021/10/04 02:55:25;;;;;;;;;0.33;0.00;;;;;14.22;67.93;101105.66;4972929;28;60683;-78
2021/10/04 02:57:51;;;;;;;;;0.00;0.00;;;;;14.21;68.37;101105.63;4973087;28;52667;-78
2021/10/04 03:00:16;;;;;;;;;2.00;0.00;;;;;14.20;68.38;101111.81;4972354;28;48731;-78
2021/10/04 03:02:42;;;;;;;;;2.00;0.00;;;;;14.13;68.12;101105.63;4973146;28;46434;-78
2021/10/04 03:05:07;;;;;;;;;1.00;0.00;;;;;14.12;68.20;101101.22;4973050;28;45490;-78
2021/10/04 03:07:33;;;;;;;;;0.00;0.00;;;;;14.15;68.18;101106.50;4973805;28;45573;-78
2021/10/04 03:09:58;;;;;;;;;0.33;0.00;;;;;14.16;68.38;101106.50;4973284;28;45564;-78
2021/10/04 03:12:24;;;;;;;;;2.00;0.00;;;;;14.09;68.32;101099.41;4964403;28;62678;-78
2021/10/04 03:14:49;;;;;;;;;0.00;0.00;;;;;14.11;68.59;101105.63;4973270;28;45937;-78
2021/10/04 03:17:14;;;;;;;;;3.00;0.00;;;;;14.11;68.55;101104.72;4975305;28;45320;-78
2021/10/04 03:19:40;;;;;;;;;0.00;0.00;;;;;14.11;68.36;101120.66;4976229;28;50827;-78
2021/10/04 03:22:05;;;;;;;;;1.00;0.00;;;;;14.06;68.28;101104.75;4974504;28;61076;-78
2021/10/04 03:24:31;;;;;;;;;1.00;0.00;;;;;14.06;68.25;101112.72;4976061;28;45320;-78
2021/10/04 03:26:56;;;;;;;;;1.00;0.00;;;;;14.03;68.07;101114.47;4973542;28;45312;-78
2021/10/04 03:29:22;;;;;;;;;0.00;0.00;;;;;14.05;68.21;101110.91;4974139;28;45472;-79
2021/10/04 03:31:47;;;;;;;;;0.00;0.00;;;;;14.02;68.32;101116.25;4974813;28;46538;-78
2021/10/04 03:34:12;;;;;;;;;0.67;0.00;;;;;13.96;68.52;101113.59;4974778;28;51944;-77
2021/10/04 03:36:38;;;;;;;;;0.00;0.00;;;;;13.94;67.89;101107.38;4976208;28;45323;-78
2021/10/04 03:39:04;;;;;;;;;2.00;0.00;;;;;13.94;68.56;101110.03;4975987;28;45160;-78
2021/10/04 03:41:30;;;;;;;;;2.00;0.00;;;;;13.96;68.48;101113.59;4975797;28;47421;-78
2021/10/04 03:43:55;;;;;;;;;0.00;0.00;;;;;13.94;68.73;101107.38;4974270;28;58726;-78
2021/10/04 03:46:20;;;;;;;;;0.67;0.67;;;;;13.88;68.66;101096.75;4975302;28;58672;-78
2021/10/04 03:48:46;;;;;;;;;0.67;0.00;;;;;13.94;68.54;101104.72;4970529;28;50193;-78
2021/10/04 03:51:11;;;;;;;;;0.00;0.00;;;;;13.94;68.87;101109.13;4975349;28;47205;-78
2021/10/04 03:53:37;;;;;;;;;1.33;0.00;;;;;13.93;68.67;101110.91;4975542;28;48812;-78
2021/10/04 03:56:02;;;;;;;;;2.67;0.00;;;;;13.91;68.60;101109.16;4974657;28;45504;-78
2021/10/04 03:58:28;;;;;;;;;0.00;0.00;;;;;13.88;68.74;101113.56;4975168;28;45794;-78
2021/10/04 04:00:53;;;;;;;;;0.00;0.00;;;;;13.88;68.53;101128.59;4974982;28;61067;-78
2021/10/04 04:03:18;;;;;;;;;1.00;0.00;;;;;13.87;68.81;101135.69;4974569;28;57810;-78
2021/10/04 04:05:44;;;;;;;;;1.33;0.00;;;;;13.86;68.66;101133.03;4974837;28;55109;-78
2021/10/04 04:08:09;;;;;;;;;0.00;0.00;;;;;13.84;69.08;101134.78;4975409;28;51604;-78
2021/10/04 04:10:34;;;;;;;;;1.00;0.00;;;;;13.84;69.44;101135.66;4975031;28;49072;-77
2021/10/04 04:13:00;;;;;;;;;1.00;0.33;;;;;13.84;69.26;101134.78;4974868;28;58607;-77
2021/10/04 04:15:25;;;;;;;;;2.33;0.00;;;;;13.79;69.12;101123.25;4974428;28;53967;-78
2021/10/04 04:17:51;;;;;;;;;2.00;0.00;;;;;13.81;69.20;101134.78;4974800;28;45271;-77
2021/10/04 04:20:16;;;;;;;;;3.00;0.00;;;;;13.76;69.25;101142.72;4975269;28;46715;-78
2021/10/04 04:22:42;;;;;;;;;5.00;1.00;;;;;13.79;69.23;101157.75;4975038;28;45474;-77
2021/10/04 04:25:08;;;;;;;;;1.67;0.00;;;;;13.77;69.18;101154.22;4975196;28;45313;-77
2021/10/04 04:27:34;;;;;;;;;1.00;1.00;;;;;13.76;69.02;101152.47;4973405;28;45425;-77
2021/10/04 04:30:01;;;;;;;;;3.00;0.00;;;;;13.76;69.25;101160.44;4974994;28;46487;-77
2021/10/04 04:32:26;;;;;;;;;1.00;0.00;;;;;13.69;69.41;101148.00;4974577;28;45422;-77
2021/10/04 04:34:52;;;;;;;;;2.33;1.00;;;;;13.71;69.56;101143.59;4974896;28;45311;-77
2021/10/04 04:37:17;;;;;;;;;1.00;0.00;;;;;13.75;69.34;101159.53;4975033;28;49864;-78
2021/10/04 04:39:42;;;;;;;;;2.33;0.00;;;;;13.72;69.32;101146.25;4974432;28;56359;-78
2021/10/04 04:42:08;;;;;;;;;2.33;0.00;;;;;13.75;69.13;101148.03;4975299;28;45325;-77
2021/10/04 04:44:33;;;;;;;;;1.67;0.00;;;;;13.75;69.69;101156.00;4974913;28;52817;-78
2021/10/04 04:46:59;;;;;;;;;0.00;0.00;;;;;13.73;69.51;101157.75;4975275;28;45432;-77
2021/10/04 04:49:26;;;;;;;;;0.67;0.00;;;;;13.72;69.48;101164.81;4973406;28;46310;-77
2021/10/04 04:51:57;;;;;;;;;4.00;0.67;;;;;13.71;69.51;101170.13;4974748;28;45290;-78
2021/10/04 04:54:23;;;;;;;;;0.00;0.00;;;;;13.69;69.60;101174.53;4974905;28;45444;-77
2021/10/04 04:56:49;;;;;;;;;0.00;0.00;;;;;13.62;69.66;101177.16;4975233;28;45594;-78
2021/10/04 04:59:15;;;;;;;;;1.00;1.00;;;;;13.63;69.24;101176.31;4974593;28;47178;-77
2021/10/04 05:01:41;;;;;;;;;2.33;0.00;;;;;13.58;69.72;101183.38;4973852;28;46014;-78
2021/10/04 05:04:07;;;;;;;;;0.00;0.00;;;;;13.62;69.71;101197.50;4973489;28;45551;-77
2021/10/04 05:06:32;;;;;;;;;2.33;0.00;;;;;13.61;70.10;101195.75;4975323;28;46157;-77
2021/10/04 05:08:57;;;;;;;;;2.00;0.00;;;;;13.60;69.82;101192.19;4973519;28;58781;-77
2021/10/04 05:11:23;;;;;;;;;1.67;0.67;;;;;13.57;69.99;101186.00;4974169;28;59392;-77
2021/10/04 05:13:48;;;;;;;;;0.33;0.00;;;;;13.53;70.29;101185.09;4973868;28;57067;-78
2021/10/04 05:16:14;;;;;;;;;4.33;0.67;;;;;13.50;70.13;101190.38;4966286;28;46071;-77
2021/10/04 05:18:39;;;;;;;;;2.33;2.33;;;;;13.47;70.48;101186.81;4973541;28;46489;-78
2021/10/04 05:21:05;;;;;;;;;3.00;2.00;;;;;13.45;70.57;101191.25;4974035;28;53246;-77
2021/10/04 05:23:30;;;;;;;;;1.00;1.00;;;;;13.41;70.59;101192.09;4974668;28;45357;-78
2021/10/04 05:25:57;;;;;;;;;3.00;1.00;;;;;13.38;70.14;101182.38;4972117;28;45505;-78
2021/10/04 05:28:22;;;;;;;;;2.00;2.00;;;;;13.35;70.60;101182.34;4974133;28;47356;-77
2021/10/04 05:30:47;;;;;;;;;3.00;2.00;;;;;13.35;71.04;101182.34;4973289;28;58474;-78
2021/10/04 05:33:13;;;;;;;;;6.00;3.00;;;;;13.30;70.88;101181.44;4972322;28;45509;-77
2021/10/04 05:35:38;;;;;;;;;4.00;2.67;;;;;13.33;70.78;101189.41;4969764;28;52491;-77
2021/10/04 05:38:03;;;;;;;;;2.00;2.00;;;;;13.31;70.86;101189.38;4966804;28;47366;-76
2021/10/04 05:40:29;;;;;;;;;2.33;1.00;;;;;13.30;70.92;101192.03;4971937;28;61486;-79
2021/10/04 05:42:54;;;;;;;;;1.00;1.00;;;;;13.28;71.07;101196.47;4971472;28;45800;-80
2021/10/04 05:45:20;;;;;;;;;1.00;1.00;;;;;13.27;70.90;101194.69;4972527;28;54409;-76
2021/10/04 05:47:45;;;;;;;;;1.00;1.00;;;;;13.23;70.82;101201.72;4968040;28;60123;-76
2021/10/04 05:50:11;;;;;;;;;4.67;1.00;;;;;13.16;71.02;101199.03;4968384;28;45564;-79
2021/10/04 05:52:36;;;;;;;;;2.00;0.67;;;;;13.13;70.89;101202.53;4971726;28;45357;-79
2021/10/04 05:55:03;;;;;;;;;3.00;1.00;;;;;13.12;71.14;101214.00;4967557;28;45542;-79
2021/10/04 05:57:28;;;;;;;;;1.00;1.00;;;;;13.12;71.25;101208.72;4968631;28;46959;-81
2021/10/04 05:59:55;;;;;;;;;1.33;0.00;;;;;13.14;71.24;101211.34;4955527;28;58956;-78
2021/10/04 06:02:21;;;;;;;;;1.67;1.67;;;;;13.11;71.12;101207.81;4980070;23;45594;-81
2021/10/04 06:04:46;;;;;;;;;2.00;1.00;;;;;13.13;71.27;101212.25;4963791;28;45549;-80
2021/10/04 06:07:12;;;;;;;;;3.00;1.00;;;;;13.10;71.49;101208.72;4955302;28;46826;-80
2021/10/04 06:09:38;;;;;;;;;4.00;1.00;;;;;13.03;71.36;101206.88;4956097;28;45487;-81
2021/10/04 06:12:03;;;;;;;;;2.00;0.33;;;;;13.09;71.38;101222.81;4977623;23;45551;-79
2021/10/04 06:16:56;;;;;;;;;3.00;0.67;;;;;13.08;71.39;101226.34;4978422;22;45658;-80
2021/10/04 06:19:22;;;;;;;;;3.00;1.67;;;;;13.08;71.82;101228.13;4981567;22;45658;-78
2021/10/04 06:21:48;;;;;;;;;1.00;1.00;;;;;13.06;71.58;101220.16;4972750;23;45770;-77
2021/10/04 06:24:14;;;;;;;;;2.67;1.00;;;;;13.09;71.70;101221.94;4965128;28;45657;-76
2021/10/04 06:26:39;;;;;;;;;2.00;1.00;;;;;13.08;71.76;101218.41;4963152;28;47303;-73
2021/10/04 06:29:04;;;;;;;;;1.67;1.00;;;;;13.08;71.70;101223.69;4966433;28;45486;-75
2021/10/04 06:31:30;;;;;;;;;3.00;2.00;;;;;13.08;71.78;101223.69;4958135;28;45491;-76
2021/10/04 06:33:55;;;;;;;;;2.00;1.00;;;;;13.10;71.71;101227.25;4952392;28;45536;-76
2021/10/04 06:36:21;;;;;;;;;1.33;1.33;;;;;13.05;71.95;101226.34;4965857;28;58854;-75
2021/10/04 06:38:46;;;;;;;;;1.00;1.00;;;;;13.14;71.97;101237.88;4967382;28;45480;-75
2021/10/04 06:41:11;;;;;;;;;3.00;1.00;;;;;13.18;71.97;101237.03;4962393;28;47515;-78
2021/10/04 06:43:37;;;;;;;;;1.00;1.00;;;;;13.17;71.85;101237.91;4957629;28;51655;-78
2021/10/04 06:46:07;;;;;;;;;3.33;1.00;;;;;13.19;71.91;101239.69;4964198;28;60807;-76
2021/10/04 06:48:33;;;;;;;;;4.00;1.00;;;;;13.26;71.85;101257.47;4957870;28;45903;-77
2021/10/04 06:50:58;;;;;;;;;3.00;2.00;;;;;13.30;71.51;101268.94;4972369;28;45607;-76
2021/10/04 06:53:23;;;;;;;;;6.67;1.00;;;;;13.27;71.92;101259.22;4962286;28;45451;-75
2021/10/04 06:55:49;;;;;;;;;5.00;2.00;;;;;13.34;71.73;101273.41;4970179;28;55050;-76
2021/10/04 06:58:14;;;;;;;;;3.00;1.33;;;;;13.37;71.35;101268.13;4965884;22;45486;-76
2021/10/04 07:00:40;;;;;;;;;1.67;1.67;;;;;13.41;71.40;101274.31;4984509;22;45583;-77
2021/10/04 07:03:05;;;;;;;;;2.00;2.00;;;;;13.43;71.49;101267.28;4968769;28;45686;-78
2021/10/04 07:05:30;;;;;;;;;6.00;3.67;;;;;13.45;71.34;101270.81;4959227;28;46361;-77
2021/10/04 07:07:56;;;;;;;;;5.00;4.00;;;;;13.49;71.09;101272.63;4958051;28;56518;-77
2021/10/04 07:10:23;;;;;;;;;4.00;3.00;;;;;13.51;71.01;101281.47;4967512;28;45713;-76
2021/10/04 07:12:49;;;;;;;;;5.67;2.00;;;;;13.49;71.05;101267.31;4968758;28;45444;-76
2021/10/04 07:15:14;;;;;;;;;2.67;2.33;;;;;13.55;71.05;101286.81;4990763;22;45526;-74
2021/10/04 07:17:39;;;;;;;;;3.33;2.67;;;;;13.57;71.15;101284.16;4971688;28;45446;-76
2021/10/04 07:20:05;;;;;;;;;4.00;2.67;;;;;13.59;70.88;101299.22;4970720;28;45465;-77
2021/10/04 07:22:31;;;;;;;;;5.00;2.00;;;;;13.59;70.99;101287.72;4971242;28;45569;-77
2021/10/04 07:24:56;;;;;;;;;1.00;1.00;;;;;13.62;70.82;101291.25;4966562;28;60189;-76
2021/10/04 07:27:22;;;;;;;;;4.00;2.33;;;;;13.65;70.91;101293.06;4963068;28;46428;-76
2021/10/04 07:29:47;;;;;;;;;2.00;2.00;;;;;13.68;70.80;101293.06;5066891;22;52129;-76
2021/10/04 07:32:12;;;;;;;;;1.33;1.00;;;;;13.68;71.00;101290.41;4950909;28;45536;-76
2021/10/04 07:34:38;;;;;;;;;2.00;2.00;;;;;13.75;70.88;101296.66;4951233;28;46489;-78
2021/10/04 07:37:03;;;;;;;;;3.00;1.00;;;;;13.77;70.47;101287.81;4948781;28;56943;-76
2021/10/04 07:39:29;;;;;;;;;3.00;1.67;;;;;13.80;70.10;101292.25;4949165;28;52445;-76
2021/10/04 07:41:57;;;;;;;;;2.00;2.00;;;;;13.83;70.93;101300.22;4954569;28;45621;-76
2021/10/04 07:44:22;;;;;;;;;4.00;1.00;;;;;13.84;70.16;101305.53;4948284;28;47582;-77
2021/10/04 07:46:48;;;;;;;;;2.33;2.00;;;;;13.91;70.54;101308.25;4933312;28;52196;-78
2021/10/04 07:49:13;;;;;;;;;2.00;1.00;;;;;13.94;70.15;101301.16;4951718;28;45911;-75
2021/10/04 07:51:39;;;;;;;;;1.00;1.00;;;;;13.99;70.26;101303.84;4953053;28;53401;-75
2021/10/04 07:54:04;;;;;;;;;4.33;1.00;;;;;14.01;69.89;101303.00;4953800;28;59755;-76
2021/10/04 07:56:30;;;;;;;;;2.00;0.33;;;;;14.06;70.58;101305.63;4951113;28;45484;-76
2021/10/04 07:58:55;;;;;;;;;2.00;1.00;;;;;14.07;70.10;101310.09;4952277;28;45549;-76
2021/10/04 08:01:20;;;;;;;;;4.33;2.00;;;;;14.14;70.25;101318.06;4952327;28;52636;-75
2021/10/04 08:03:46;;;;;;;;;0.67;0.67;;;;;14.16;69.72;101315.41;4951947;28;56571;-77
2021/10/04 08:06:13;;;;;;;;;2.00;1.00;;;;;14.21;69.82;101312.78;4954521;28;46320;-76
2021/10/04 08:08:38;;;;;;;;;3.67;2.00;;;;;14.24;70.14;101318.13;4952522;28;45809;-75
2021/10/04 08:11:04;;;;;;;;;3.00;1.00;;;;;14.30;69.99;101307.50;4952500;28;45540;-76
2021/10/04 08:13:29;;;;;;;;;1.67;1.00;;;;;14.32;69.81;101317.25;4953420;28;58731;-76
2021/10/04 08:15:55;;;;;;;;;1.00;1.00;;;;;14.37;69.72;101322.56;4948448;28;49909;-75
2021/10/04 08:18:20;;;;;;;;;2.00;0.67;;;;;14.38;70.14;101321.69;4949244;28;54822;-76
2021/10/04 08:20:45;;;;;;;;;1.67;0.33;;;;;14.42;70.13;101323.47;4954347;28;45449;-76
2021/10/04 08:23:13;;;;;;;;;2.00;1.00;;;;;14.44;69.88;101311.09;4952803;28;45598;-76
2021/10/04 08:25:38;;;;;;;;;4.67;0.00;;;;;14.48;70.01;101312.00;4947500;28;45513;-76
2021/10/04 08:28:04;;;;;;;;;1.33;0.00;;;;;14.50;68.75;101310.28;4951682;28;50894;-75
2021/10/04 08:30:29;;;;;;;;;2.00;1.00;;;;;14.54;69.94;101310.28;4952943;28;45877;-76
2021/10/04 08:32:55;;;;;;;;;2.33;0.00;;;;;14.59;70.06;101316.47;4952961;28;46238;-75
2021/10/04 08:35:20;;;;;;;;;0.33;0.33;;;;;14.60;69.57;101310.28;4951830;28;58489;-76
2021/10/04 08:37:45;;;;;;;;;0.33;0.33;;;;;14.62;70.09;101300.53;4953936;28;51844;-75
2021/10/04 08:40:12;;;;;;;;;6.33;1.00;;;;;14.69;69.64;101314.72;4954151;28;45559;-75
2021/10/04 08:42:38;;;;;;;;;1.00;1.00;;;;;14.71;70.01;101307.66;4954143;28;45623;-75
2021/10/04 08:45:05;;;;;;;;;2.00;0.00;;;;;14.79;70.30;101310.31;4952616;28;45451;-76
2021/10/04 08:47:30;;;;;;;;;2.33;0.67;;;;;14.82;69.57;101310.34;4953932;28;45350;-76
2021/10/04 08:49:56;;;;;;;;;6.00;5.00;;;;;14.85;69.61;101313.84;4952960;28;45518;-75
2021/10/04 08:52:21;;;;;;;;;1.00;1.00;;;;;14.90;70.40;101306.78;4953672;28;45432;-75
2021/10/04 08:54:47;;;;;;;;;1.00;1.00;;;;;14.90;70.06;101296.13;4954124;28;45410;-75
2021/10/04 08:57:12;;;;;;;;;3.00;0.67;;;;;15.00;70.14;101307.69;4954146;28;45564;-75
2021/10/04 08:59:38;;;;;;;;;0.33;0.33;;;;;15.03;70.32;101302.38;4949702;28;45515;-75
2021/10/04 09:02:26;;;;;;;;;24.33;22.00;;;;;15.09;70.14;101299.69;4950402;28;46518;-75
2021/10/04 09:05:13;;;;;;;;;3.00;2.00;;;;;15.15;70.31;101301.47;4953260;28;45540;-76
2021/10/04 09:07:45;;;;;;;;;1.00;1.00;;;;;15.20;69.68;101300.59;4962028;28;45581;-76
2021/10/04 09:10:13;;;;;;;;;4.00;3.00;;;;;15.22;70.23;101299.69;4952398;28;45460;-75
2021/10/04 09:12:49;;;;;;;;;3.00;1.00;;;;;15.28;69.93;101299.69;4953517;28;46485;-77
2021/10/04 09:15:19;;;;;;;;;1.00;1.00;;;;;15.36;69.92;101304.13;4953138;28;45498;-76
2021/10/04 09:17:45;;;;;;;;;0.00;0.00;;;;;15.41;70.16;101306.78;4953913;28;45923;-76
2021/10/04 09:20:10;;;;;;;;;1.00;0.00;;;;;15.49;70.00;101304.97;4952259;28;56249;-76
2021/10/04 09:22:36;;;;;;;;;3.00;1.00;;;;;15.52;69.46;101294.34;4952984;28;59976;-75
2021/10/04 09:25:03;;;;;;;;;2.00;1.00;;;;;15.60;69.58;101294.31;4952383;28;45543;-77
2021/10/04 09:27:42;;;;;;;;;2.67;1.00;;;;;15.64;69.30;101304.97;4947964;28;45532;-74
2021/10/04 09:30:27;;;;;;;;;0.67;0.00;;;;;15.73;69.62;101297.88;4947932;28;45506;-78
2021/10/04 09:32:52;;;;;;;;;4.33;0.00;;;;;15.75;69.94;101291.66;4952040;28;47113;-79
2021/10/04 09:35:25;;;;;;;;;2.00;1.00;;;;;15.81;69.87;101290.75;4974436;28;45550;-76
2021/10/04 09:38:00;;;;;;;;;1.67;1.00;;;;;15.90;69.69;101301.38;4953860;28;45473;-76
2021/10/04 09:40:30;;;;;;;;;2.33;0.00;;;;;15.94;69.55;101297.81;4950595;28;45425;-76
2021/10/04 09:42:56;;;;;;;;;2.00;0.33;;;;;15.99;69.44;101290.69;4949433;28;47267;-75
2021/10/04 09:45:21;;;;;;;;;2.00;0.00;;;;;16.04;69.01;101288.03;4953538;28;46368;-77
2021/10/04 09:47:47;;;;;;;;;3.00;0.00;;;;;16.06;69.08;101289.75;4953182;28;45642;-74
2021/10/04 09:50:17;;;;;;;;;0.00;0.00;;;;;16.11;69.10;101287.97;4952721;28;45425;-75
2021/10/04 09:52:51;;;;;;;;;4.33;0.33;;;;;16.22;68.32;101285.25;4951557;28;45647;-77
2021/10/04 09:55:23;;;;;;;;;0.67;0.67;;;;;16.35;69.03;101286.97;4951674;28;45453;-78
2021/10/04 09:58:17;;;;;;;;;0.00;0.00;;;;;16.42;68.33;101282.50;4953713;28;45267;-75
2021/10/04 10:00:51;;;;;;;;;1.00;0.00;;;;;16.53;68.70;101279.75;4948509;28;45484;-79
2021/10/04 10:03:19;;;;;;;;;1.67;0.00;;;;;16.59;67.88;101288.59;4947159;28;47675;-75
2021/10/04 10:05:50;;;;;;;;;2.00;0.33;;;;;16.58;68.39;101276.16;4953681;28;45488;-75
2021/10/04 10:08:16;;;;;;;;;4.00;0.00;;;;;16.68;68.13;101285.00;4952865;28;45547;-75
2021/10/04 10:10:43;;;;;;;;;0.00;0.00;;;;;16.76;68.01;101272.50;4953812;28;45632;-77
2021/10/04 10:13:09;;;;;;;;;1.00;1.00;;;;;16.88;68.00;101276.84;4953048;28;46778;-75
2021/10/04 10:15:35;;;;;;;;;0.00;0.00;;;;;16.91;67.96;101277.72;4952960;28;45512;-75
2021/10/04 10:18:11;;;;;;;;;2.00;0.00;;;;;17.00;67.82;101280.34;4957655;28;45494;-76
2021/10/04 10:20:37;;;;;;;;;4.33;0.00;;;;;17.13;67.83;101289.09;4952634;28;45549;-75
2021/10/04 10:23:02;;;;;;;;;0.00;0.00;;;;;17.20;67.46;101290.81;4952306;28;46393;-76
2021/10/04 10:25:32;;;;;;;;;3.00;1.00;;;;;17.23;67.57;101288.13;4952259;28;57880;-75
2021/10/04 10:27:57;;;;;;;;;1.33;0.67;;;;;17.23;67.26;101288.13;4952298;28;45575;-75
2021/10/04 10:30:24;;;;;;;;;0.00;0.00;;;;;17.27;67.12;101297.88;4951594;28;45655;-76
2021/10/04 10:32:49;;;;;;;;;3.00;0.00;;;;;17.29;67.26;101301.41;4950945;28;47853;-75
2021/10/04 10:35:16;;;;;;;;;1.67;0.00;;;;;17.29;66.22;101285.41;4951872;28;45466;-77
2021/10/04 10:37:46;;;;;;;;;2.00;0.00;;;;;17.31;66.53;101292.50;4952385;28;45427;-75
2021/10/04 10:40:15;;;;;;;;;1.00;0.00;;;;;17.39;65.97;101293.31;4950941;28;45499;-77
2021/10/04 10:42:41;;;;;;;;;0.33;0.00;;;;;17.43;66.26;101297.75;4952602;28;47320;-75
2021/10/04 10:45:08;;;;;;;;;0.67;0.33;;;;;17.46;66.33;101289.69;4952752;28;45444;-74
2021/10/04 10:47:36;;;;;;;;;1.00;1.00;;;;;17.49;66.15;101292.34;4953103;28;45408;-75
2021/10/04 10:50:11;;;;;;;;;2.33;1.00;;;;;17.56;66.15;101286.03;4953785;28;45572;-75
2021/10/04 10:52:44;;;;;;;;;2.67;1.00;;;;;17.65;65.37;101277.91;4952833;28;47795;-75
2021/10/04 10:55:18;;;;;;;;;1.00;1.00;;;;;17.84;64.70;101285.75;4953619;28;45283;-76
2021/10/04 10:57:52;;;;;;;;;2.33;0.00;;;;;17.90;65.27;101286.59;4953769;28;45434;-75
2021/10/04 11:00:25;;;;;;;;;2.00;1.00;;;;;17.93;64.23;101291.88;4953199;28;45606;-74
2021/10/04 11:02:57;;;;;;;;;0.00;0.00;;;;;17.97;64.51;101282.03;4951532;28;47534;-77
2021/10/04 11:05:37;;;;;;;;;2.33;2.00;;;;;18.19;63.04;101280.84;4953087;28;45308;-75
2021/10/04 11:08:03;;;;;;;;;0.00;0.00;;;;;18.41;63.69;101276.09;4953623;28;45445;-75
2021/10/04 11:10:29;;;;;;;;;2.33;0.00;;;;;18.50;63.58;101280.44;4954049;28;45365;-78
2021/10/04 11:13:09;;;;;;;;;0.00;0.00;;;;;18.59;63.02;101269.63;4952158;28;62569;-75
2021/10/04 11:15:36;;;;;;;;;0.00;0.00;;;;;18.72;64.17;101263.19;4952811;28;45500;-75
2021/10/04 11:18:01;;;;;;;;;2.00;1.00;;;;;18.70;61.63;101259.66;4952115;28;45554;-76
2021/10/04 11:20:27;;;;;;;;;0.00;0.00;;;;;18.64;62.72;101262.38;4953727;28;45396;-77
2021/10/04 11:23:08;;;;;;;;;3.67;0.00;;;;;18.69;61.83;101265.03;4952601;28;46032;-75